sensor_id;sensor_type;location;lat;lon;timestamp;pressure;altitude;pressure_sealevel;temperature
19666;BMP180;9980;51.020;7.772;2024-03-02T00:00:39;96171.00;;;7.60
19666;BMP180;9980;51.020;7.772;2024-03-02T00:03:07;96168.00;;;7.60
19666;BMP180;9980;51.020;7.772;2024-03-02T00:05:36;96169.00;;;7.60
19666;BMP180;9980;51.020;7.772;2024-03-02T00:08:05;96167.00;;;7.60
19666;BMP180;9980;51.020;7.772;2024-03-02T00:10:39;96172.00;;;7.60
19666;BMP180;9980;51.020;7.772;2024-03-02T00:13:08;96167.00;;;7.60
19666;BMP180;9980;51.020;7.772;2024-03-02T00:15:48;96180.00;;;7.50
19666;BMP180;9980;51.020;7.772;2024-03-02T00:18:25;96174.00;;;7.60
19666;BMP180;9980;51.020;7.772;2024-03-02T00:20:56;96157.00;;;7.50
19666;BMP180;9980;51.020;7.772;2024-03-02T00:23:27;96161.00;;;7.60
19666;BMP180;9980;51.020;7.772;2024-03-02T00:25:56;96167.00;;;7.50
19666;BMP180;9980;51.020;7.772;2024-03-02T00:28:26;96174.00;;;7.50
19666;BMP180;9980;51.020;7.772;2024-03-02T00:33:27;96180.00;;;7.50
19666;BMP180;9980;51.020;7.772;2024-03-02T00:35:56;96161.00;;;7.50
19666;BMP180;9980;51.020;7.772;2024-03-02T00:38:24;96176.00;;;7.50
19666;BMP180;9980;51.020;7.772;2024-03-02T00:40:51;96183.00;;;7.50
19666;BMP180;9980;51.020;7.772;2024-03-02T00:46:22;96185.00;;;7.50
19666;BMP180;9980;51.020;7.772;2024-03-02T00:49:03;96169.00;;;7.50
19666;BMP180;9980;51.020;7.772;2024-03-02T00:51:33;96183.00;;;7.50
19666;BMP180;9980;51.020;7.772;2024-03-02T00:54:07;96183.00;;;7.50
19666;BMP180;9980;51.020;7.772;2024-03-02T00:56:35;96160.00;;;7.50
19666;BMP180;9980;51.020;7.772;2024-03-02T00:59:02;96175.00;;;7.50
19666;BMP180;9980;51.020;7.772;2024-03-02T01:01:29;96172.00;;;7.60
19666;BMP180;9980;51.020;7.772;2024-03-02T01:03:56;96165.00;;;7.60
19666;BMP180;9980;51.020;7.772;2024-03-02T01:06:23;96167.00;;;7.60
19666;BMP180;9980;51.020;7.772;2024-03-02T01:08:50;96167.00;;;7.60
19666;BMP180;9980;51.020;7.772;2024-03-02T01:11:20;96159.00;;;7.60
19666;BMP180;9980;51.020;7.772;2024-03-02T01:13:50;96148.00;;;7.70
19666;BMP180;9980;51.020;7.772;2024-03-02T01:16:18;96147.00;;;7.70
19666;BMP180;9980;51.020;7.772;2024-03-02T01:18:45;96150.00;;;7.70
19666;BMP180;9980;51.020;7.772;2024-03-02T01:21:12;96146.00;;;7.70
19666;BMP180;9980;51.020;7.772;2024-03-02T01:23:39;96134.00;;;7.70
19666;BMP180;9980;51.020;7.772;2024-03-02T01:26:06;96123.00;;;7.80
19666;BMP180;9980;51.020;7.772;2024-03-02T01:28:33;96125.00;;;7.80
19666;BMP180;9980;51.020;7.772;2024-03-02T01:31:00;96125.00;;;7.80
19666;BMP180;9980;51.020;7.772;2024-03-02T01:33:28;96126.00;;;7.80
19666;BMP180;9980;51.020;7.772;2024-03-02T01:35:55;96137.00;;;7.90
19666;BMP180;9980;51.020;7.772;2024-03-02T01:38:22;96130.00;;;7.90
19666;BMP180;9980;51.020;7.772;2024-03-02T01:40:50;96131.00;;;7.90
19666;BMP180;9980;51.020;7.772;2024-03-02T01:43:17;96122.00;;;7.90
19666;BMP180;9980;51.020;7.772;2024-03-02T01:45:43;96114.00;;;7.90
19666;BMP180;9980;51.020;7.772;2024-03-02T01:48:10;96119.00;;;8.00
19666;BMP180;9980;51.020;7.772;2024-03-02T01:50:37;96113.00;;;8.00
19666;BMP180;9980;51.020;7.772;2024-03-02T01:53:04;96114.00;;;8.00
19666;BMP180;9980;51.020;7.772;2024-03-02T01:55:31;96101.00;;;8.00
19666;BMP180;9980;51.020;7.772;2024-03-02T01:58:00;96094.00;;;8.00
19666;BMP180;9980;51.020;7.772;2024-03-02T02:00:27;96101.00;;;8.00
19666;BMP180;9980;51.020;7.772;2024-03-02T02:02:54;96104.00;;;8.00
19666;BMP180;9980;51.020;7.772;2024-03-02T02:05:22;96100.00;;;8.00
19666;BMP180;9980;51.020;7.772;2024-03-02T02:07:49;96097.00;;;8.00
19666;BMP180;9980;51.020;7.772;2024-03-02T02:10:17;96103.00;;;7.90
19666;BMP180;9980;51.020;7.772;2024-03-02T02:12:44;96105.00;;;7.90
19666;BMP180;9980;51.020;7.772;2024-03-02T02:15:30;96097.00;;;7.90
19666;BMP180;9980;51.020;7.772;2024-03-02T02:17:58;96101.00;;;7.90
19666;BMP180;9980;51.020;7.772;2024-03-02T02:20:26;96095.00;;;7.80
19666;BMP180;9980;51.020;7.772;2024-03-02T02:23:04;96090.00;;;7.80
19666;BMP180;9980;51.020;7.772;2024-03-02T02:25:32;96098.00;;;7.80
19666;BMP180;9980;51.020;7.772;2024-03-02T02:27:59;96092.00;;;7.80
19666;BMP180;9980;51.020;7.772;2024-03-02T02:30:29;96102.00;;;7.70
19666;BMP180;9980;51.020;7.772;2024-03-02T02:32:58;96098.00;;;7.70
19666;BMP180;9980;51.020;7.772;2024-03-02T02:35:26;96092.00;;;7.70
19666;BMP180;9980;51.020;7.772;2024-03-02T02:37:54;96081.00;;;7.70
19666;BMP180;9980;51.020;7.772;2024-03-02T02:40:22;96085.00;;;7.70
19666;BMP180;9980;51.020;7.772;2024-03-02T02:42:50;96080.00;;;7.60
19666;BMP180;9980;51.020;7.772;2024-03-02T02:45:19;96076.00;;;7.60
19666;BMP180;9980;51.020;7.772;2024-03-02T02:47:46;96078.00;;;7.60
19666;BMP180;9980;51.020;7.772;2024-03-02T02:50:13;96080.00;;;7.60
19666;BMP180;9980;51.020;7.772;2024-03-02T02:52:42;96074.00;;;7.50
19666;BMP180;9980;51.020;7.772;2024-03-02T02:55:11;96078.00;;;7.50
19666;BMP180;9980;51.020;7.772;2024-03-02T02:57:40;96077.00;;;7.50
19666;BMP180;9980;51.020;7.772;2024-03-02T03:00:12;96077.00;;;7.50
19666;BMP180;9980;51.020;7.772;2024-03-02T03:02:49;96082.00;;;7.40
19666;BMP180;9980;51.020;7.772;2024-03-02T03:05:18;96082.00;;;7.40
19666;BMP180;9980;51.020;7.772;2024-03-02T03:07:46;96078.00;;;7.40
19666;BMP180;9980;51.020;7.772;2024-03-02T03:10:15;96088.00;;;7.30
19666;BMP180;9980;51.020;7.772;2024-03-02T03:12:42;96075.00;;;7.30
19666;BMP180;9980;51.020;7.772;2024-03-02T03:15:11;96086.00;;;7.30
19666;BMP180;9980;51.020;7.772;2024-03-02T03:17:38;96088.00;;;7.30
19666;BMP180;9980;51.020;7.772;2024-03-02T03:20:06;96072.00;;;7.20
19666;BMP180;9980;51.020;7.772;2024-03-02T03:22:37;96075.00;;;7.20
19666;BMP180;9980;51.020;7.772;2024-03-02T03:25:05;96056.00;;;7.20
19666;BMP180;9980;51.020;7.772;2024-03-02T03:27:32;96052.00;;;7.20
19666;BMP180;9980;51.020;7.772;2024-03-02T03:29:59;96049.00;;;7.10
19666;BMP180;9980;51.020;7.772;2024-03-02T03:32:26;96062.00;;;7.10
19666;BMP180;9980;51.020;7.772;2024-03-02T03:34:53;96060.00;;;7.10
19666;BMP180;9980;51.020;7.772;2024-03-02T03:37:20;96065.00;;;7.10
19666;BMP180;9980;51.020;7.772;2024-03-02T03:39:47;96066.00;;;7.00
19666;BMP180;9980;51.020;7.772;2024-03-02T03:42:14;96076.00;;;7.00
19666;BMP180;9980;51.020;7.772;2024-03-02T03:44:41;96080.00;;;7.00
19666;BMP180;9980;51.020;7.772;2024-03-02T03:47:08;96087.00;;;7.00
19666;BMP180;9980;51.020;7.772;2024-03-02T03:49:35;96078.00;;;7.00
19666;BMP180;9980;51.020;7.772;2024-03-02T03:52:02;96064.00;;;6.90
19666;BMP180;9980;51.020;7.772;2024-03-02T03:54:29;96095.00;;;6.90
19666;BMP180;9980;51.020;7.772;2024-03-02T03:56:56;96081.00;;;6.90
19666;BMP180;9980;51.020;7.772;2024-03-02T03:59:23;96076.00;;;6.90
19666;BMP180;9980;51.020;7.772;2024-03-02T04:01:50;96071.00;;;6.90
19666;BMP180;9980;51.020;7.772;2024-03-02T04:04:17;96088.00;;;6.90
19666;BMP180;9980;51.020;7.772;2024-03-02T04:06:44;96099.00;;;6.80
19666;BMP180;9980;51.020;7.772;2024-03-02T04:09:11;96095.00;;;6.90
19666;BMP180;9980;51.020;7.772;2024-03-02T04:11:38;96101.00;;;6.90
19666;BMP180;9980;51.020;7.772;2024-03-02T04:14:05;96097.00;;;6.80
19666;BMP180;9980;51.020;7.772;2024-03-02T04:16:33;96088.00;;;6.80
19666;BMP180;9980;51.020;7.772;2024-03-02T04:19:00;96092.00;;;6.80
19666;BMP180;9980;51.020;7.772;2024-03-02T04:21:27;96100.00;;;6.80
19666;BMP180;9980;51.020;7.772;2024-03-02T04:23:54;96102.00;;;6.80
19666;BMP180;9980;51.020;7.772;2024-03-02T04:26:26;96094.00;;;6.80
19666;BMP180;9980;51.020;7.772;2024-03-02T04:28:53;96091.00;;;6.80
19666;BMP180;9980;51.020;7.772;2024-03-02T04:31:21;96086.00;;;6.90
19666;BMP180;9980;51.020;7.772;2024-03-02T04:33:48;96093.00;;;6.80
19666;BMP180;9980;51.020;7.772;2024-03-02T04:36:15;96095.00;;;6.90
19666;BMP180;9980;51.020;7.772;2024-03-02T04:38:42;96096.00;;;6.90
19666;BMP180;9980;51.020;7.772;2024-03-02T04:41:08;96075.00;;;6.80
19666;BMP180;9980;51.020;7.772;2024-03-02T04:43:36;96102.00;;;6.80
19666;BMP180;9980;51.020;7.772;2024-03-02T04:46:03;96090.00;;;6.80
19666;BMP180;9980;51.020;7.772;2024-03-02T04:48:30;96103.00;;;6.80
19666;BMP180;9980;51.020;7.772;2024-03-02T04:50:57;96086.00;;;6.80
19666;BMP180;9980;51.020;7.772;2024-03-02T04:53:24;96083.00;;;6.80
19666;BMP180;9980;51.020;7.772;2024-03-02T04:55:51;96091.00;;;6.80
19666;BMP180;9980;51.020;7.772;2024-03-02T04:58:36;96091.00;;;6.80
19666;BMP180;9980;51.020;7.772;2024-03-02T05:01:03;96098.00;;;6.70
19666;BMP180;9980;51.020;7.772;2024-03-02T05:03:31;96103.00;;;6.70
19666;BMP180;9980;51.020;7.772;2024-03-02T05:05:57;96096.00;;;6.70
19666;BMP180;9980;51.020;7.772;2024-03-02T05:08:24;96103.00;;;6.70
19666;BMP180;9980;51.020;7.772;2024-03-02T05:10:51;96127.00;;;6.70
19666;BMP180;9980;51.020;7.772;2024-03-02T05:13:18;96109.00;;;6.70
19666;BMP180;9980;51.020;7.772;2024-03-02T05:15:47;96123.00;;;6.70
19666;BMP180;9980;51.020;7.772;2024-03-02T05:18:14;96102.00;;;6.70
19666;BMP180;9980;51.020;7.772;2024-03-02T05:20:41;96113.00;;;6.70
19666;BMP180;9980;51.020;7.772;2024-03-02T05:23:08;96117.00;;;6.70
19666;BMP180;9980;51.020;7.772;2024-03-02T05:25:35;96137.00;;;6.70
19666;BMP180;9980;51.020;7.772;2024-03-02T05:28:02;96117.00;;;6.60
19666;BMP180;9980;51.020;7.772;2024-03-02T05:30:29;96122.00;;;6.60
19666;BMP180;9980;51.020;7.772;2024-03-02T05:32:56;96132.00;;;6.60
19666;BMP180;9980;51.020;7.772;2024-03-02T05:35:23;96143.00;;;6.60
19666;BMP180;9980;51.020;7.772;2024-03-02T05:37:50;96141.00;;;6.60
19666;BMP180;9980;51.020;7.772;2024-03-02T05:40:17;96135.00;;;6.60
19666;BMP180;9980;51.020;7.772;2024-03-02T05:42:46;96142.00;;;6.70
19666;BMP180;9980;51.020;7.772;2024-03-02T05:45:14;96149.00;;;6.70
19666;BMP180;9980;51.020;7.772;2024-03-02T05:47:43;96155.00;;;6.70
19666;BMP180;9980;51.020;7.772;2024-03-02T05:50:10;96138.00;;;6.70
19666;BMP180;9980;51.020;7.772;2024-03-02T05:52:37;96141.00;;;6.70
19666;BMP180;9980;51.020;7.772;2024-03-02T05:55:05;96143.00;;;6.70
19666;BMP180;9980;51.020;7.772;2024-03-02T05:57:32;96148.00;;;6.70
19666;BMP180;9980;51.020;7.772;2024-03-02T06:00:11;96142.00;;;6.70
19666;BMP180;9980;51.020;7.772;2024-03-02T06:02:40;96122.00;;;6.80
19666;BMP180;9980;51.020;7.772;2024-03-02T06:05:07;96142.00;;;6.80
19666;BMP180;9980;51.020;7.772;2024-03-02T06:07:34;96147.00;;;6.80
19666;BMP180;9980;51.020;7.772;2024-03-02T06:10:01;96151.00;;;6.80
19666;BMP180;9980;51.020;7.772;2024-03-02T06:12:28;96157.00;;;6.90
19666;BMP180;9980;51.020;7.772;2024-03-02T06:14:55;96153.00;;;6.90
19666;BMP180;9980;51.020;7.772;2024-03-02T06:17:22;96137.00;;;6.90
19666;BMP180;9980;51.020;7.772;2024-03-02T06:19:49;96144.00;;;6.90
19666;BMP180;9980;51.020;7.772;2024-03-02T06:22:16;96161.00;;;7.00
19666;BMP180;9980;51.020;7.772;2024-03-02T06:24:43;96160.00;;;7.00
19666;BMP180;9980;51.020;7.772;2024-03-02T06:27:10;96160.00;;;7.00
19666;BMP180;9980;51.020;7.772;2024-03-02T06:29:37;96158.00;;;7.00
19666;BMP180;9980;51.020;7.772;2024-03-02T06:32:04;96167.00;;;7.00
19666;BMP180;9980;51.020;7.772;2024-03-02T06:34:31;96165.00;;;7.00
19666;BMP180;9980;51.020;7.772;2024-03-02T06:36:58;96169.00;;;7.10
19666;BMP180;9980;51.020;7.772;2024-03-02T06:39:25;96171.00;;;7.10
19666;BMP180;9980;51.020;7.772;2024-03-02T06:41:52;96178.00;;;7.10
19666;BMP180;9980;51.020;7.772;2024-03-02T06:44:19;96189.00;;;7.10
19666;BMP180;9980;51.020;7.772;2024-03-02T06:46:46;96186.00;;;7.10
19666;BMP180;9980;51.020;7.772;2024-03-02T06:49:13;96180.00;;;7.10
19666;BMP180;9980;51.020;7.772;2024-03-02T06:51:41;96192.00;;;7.10
19666;BMP180;9980;51.020;7.772;2024-03-02T06:54:09;96186.00;;;7.10
19666;BMP180;9980;51.020;7.772;2024-03-02T06:56:36;96190.00;;;7.10
19666;BMP180;9980;51.020;7.772;2024-03-02T06:59:04;96170.00;;;7.10
19666;BMP180;9980;51.020;7.772;2024-03-02T07:01:31;96193.00;;;7.10
19666;BMP180;9980;51.020;7.772;2024-03-02T07:03:58;96181.00;;;7.20
19666;BMP180;9980;51.020;7.772;2024-03-02T07:06:25;96184.00;;;7.20
19666;BMP180;9980;51.020;7.772;2024-03-02T07:08:52;96181.00;;;7.20
19666;BMP180;9980;51.020;7.772;2024-03-02T07:11:18;96196.00;;;7.20
19666;BMP180;9980;51.020;7.772;2024-03-02T07:13:45;96190.00;;;7.20
19666;BMP180;9980;51.020;7.772;2024-03-02T07:16:12;96189.00;;;7.20
19666;BMP180;9980;51.020;7.772;2024-03-02T07:18:55;96181.00;;;7.20
19666;BMP180;9980;51.020;7.772;2024-03-02T07:21:23;96179.00;;;7.20
19666;BMP180;9980;51.020;7.772;2024-03-02T07:23:51;96186.00;;;7.30
19666;BMP180;9980;51.020;7.772;2024-03-02T07:26:17;96178.00;;;7.30
19666;BMP180;9980;51.020;7.772;2024-03-02T07:28:48;96174.00;;;7.30
19666;BMP180;9980;51.020;7.772;2024-03-02T07:31:16;96191.00;;;7.40
19666;BMP180;9980;51.020;7.772;2024-03-02T07:33:46;96201.00;;;7.40
19666;BMP180;9980;51.020;7.772;2024-03-02T07:36:14;96190.00;;;7.50
19666;BMP180;9980;51.020;7.772;2024-03-02T07:38:43;96179.00;;;7.50
19666;BMP180;9980;51.020;7.772;2024-03-02T07:41:11;96198.00;;;7.60
19666;BMP180;9980;51.020;7.772;2024-03-02T07:43:38;96194.00;;;7.70
19666;BMP180;9980;51.020;7.772;2024-03-02T07:46:06;96189.00;;;7.80
19666;BMP180;9980;51.020;7.772;2024-03-02T07:48:33;96196.00;;;8.00
19666;BMP180;9980;51.020;7.772;2024-03-02T07:51:00;96200.00;;;8.10
19666;BMP180;9980;51.020;7.772;2024-03-02T07:53:28;96202.00;;;8.20
19666;BMP180;9980;51.020;7.772;2024-03-02T07:55:56;96190.00;;;8.30
19666;BMP180;9980;51.020;7.772;2024-03-02T07:58:29;96212.00;;;8.50
19666;BMP180;9980;51.020;7.772;2024-03-02T08:00:56;96227.00;;;8.60
19666;BMP180;9980;51.020;7.772;2024-03-02T08:03:23;96203.00;;;8.70
19666;BMP180;9980;51.020;7.772;2024-03-02T08:05:50;96231.00;;;8.80
19666;BMP180;9980;51.020;7.772;2024-03-02T08:08:17;96215.00;;;8.90
19666;BMP180;9980;51.020;7.772;2024-03-02T08:10:44;96223.00;;;9.00
19666;BMP180;9980;51.020;7.772;2024-03-02T08:13:11;96222.00;;;9.10
19666;BMP180;9980;51.020;7.772;2024-03-02T08:15:38;96229.00;;;9.20
19666;BMP180;9980;51.020;7.772;2024-03-02T08:18:05;96208.00;;;9.30
19666;BMP180;9980;51.020;7.772;2024-03-02T08:20:32;96230.00;;;9.40
19666;BMP180;9980;51.020;7.772;2024-03-02T08:22:59;96219.00;;;9.50
19666;BMP180;9980;51.020;7.772;2024-03-02T08:25:26;96219.00;;;9.50
19666;BMP180;9980;51.020;7.772;2024-03-02T08:27:53;96214.00;;;9.60
19666;BMP180;9980;51.020;7.772;2024-03-02T08:30:21;96216.00;;;9.70
19666;BMP180;9980;51.020;7.772;2024-03-02T08:32:48;96221.00;;;9.80
19666;BMP180;9980;51.020;7.772;2024-03-02T08:35:15;96219.00;;;9.90
19666;BMP180;9980;51.020;7.772;2024-03-02T08:37:42;96219.00;;;10.10
19666;BMP180;9980;51.020;7.772;2024-03-02T08:40:10;96216.00;;;10.20
19666;BMP180;9980;51.020;7.772;2024-03-02T08:42:42;96219.00;;;10.30
19666;BMP180;9980;51.020;7.772;2024-03-02T08:45:09;96219.00;;;10.40
19666;BMP180;9980;51.020;7.772;2024-03-02T08:47:36;96219.00;;;10.50
19666;BMP180;9980;51.020;7.772;2024-03-02T08:50:04;96228.00;;;10.60
19666;BMP180;9980;51.020;7.772;2024-03-02T08:52:31;96236.00;;;10.80
19666;BMP180;9980;51.020;7.772;2024-03-02T08:54:58;96240.00;;;10.90
19666;BMP180;9980;51.020;7.772;2024-03-02T08:57:25;96237.00;;;11.00
19666;BMP180;9980;51.020;7.772;2024-03-02T08:59:52;96234.00;;;11.10
19666;BMP180;9980;51.020;7.772;2024-03-02T09:02:19;96239.00;;;11.20
19666;BMP180;9980;51.020;7.772;2024-03-02T09:04:46;96230.00;;;11.30
19666;BMP180;9980;51.020;7.772;2024-03-02T09:07:13;96246.00;;;11.40
19666;BMP180;9980;51.020;7.772;2024-03-02T09:09:40;96249.00;;;11.50
19666;BMP180;9980;51.020;7.772;2024-03-02T09:12:08;96223.00;;;11.60
19666;BMP180;9980;51.020;7.772;2024-03-02T09:14:36;96237.00;;;11.70
19666;BMP180;9980;51.020;7.772;2024-03-02T09:17:04;96222.00;;;11.80
19666;BMP180;9980;51.020;7.772;2024-03-02T09:19:30;96234.00;;;11.90
19666;BMP180;9980;51.020;7.772;2024-03-02T09:21:57;96230.00;;;12.00
19666;BMP180;9980;51.020;7.772;2024-03-02T09:24:25;96235.00;;;12.10
19666;BMP180;9980;51.020;7.772;2024-03-02T09:26:52;96240.00;;;12.20
19666;BMP180;9980;51.020;7.772;2024-03-02T09:29:19;96229.00;;;12.30
19666;BMP180;9980;51.020;7.772;2024-03-02T09:31:47;96209.00;;;12.40
19666;BMP180;9980;51.020;7.772;2024-03-02T09:34:14;96215.00;;;12.40
19666;BMP180;9980;51.020;7.772;2024-03-02T09:36:43;96221.00;;;12.50
19666;BMP180;9980;51.020;7.772;2024-03-02T09:39:10;96196.00;;;12.60
19666;BMP180;9980;51.020;7.772;2024-03-02T09:41:38;96212.00;;;12.70
19666;BMP180;9980;51.020;7.772;2024-03-02T09:44:05;96217.00;;;12.80
19666;BMP180;9980;51.020;7.772;2024-03-02T09:46:33;96214.00;;;12.90
19666;BMP180;9980;51.020;7.772;2024-03-02T09:49:00;96227.00;;;13.00
19666;BMP180;9980;51.020;7.772;2024-03-02T09:51:27;96221.00;;;13.10
19666;BMP180;9980;51.020;7.772;2024-03-02T09:53:55;96214.00;;;13.20
19666;BMP180;9980;51.020;7.772;2024-03-02T09:56:28;96211.00;;;13.20
19666;BMP180;9980;51.020;7.772;2024-03-02T09:58:55;96202.00;;;13.30
19666;BMP180;9980;51.020;7.772;2024-03-02T10:01:25;96195.00;;;13.40
19666;BMP180;9980;51.020;7.772;2024-03-02T10:03:55;96200.00;;;13.50
19666;BMP180;9980;51.020;7.772;2024-03-02T10:06:27;96202.00;;;13.50
19666;BMP180;9980;51.020;7.772;2024-03-02T10:08:55;96207.00;;;13.60
19666;BMP180;9980;51.020;7.772;2024-03-02T10:11:34;96205.00;;;13.70
19666;BMP180;9980;51.020;7.772;2024-03-02T10:14:11;96208.00;;;13.80
19666;BMP180;9980;51.020;7.772;2024-03-02T10:16:43;96206.00;;;13.90
19666;BMP180;9980;51.020;7.772;2024-03-02T10:19:21;96207.00;;;14.00
19666;BMP180;9980;51.020;7.772;2024-03-02T10:21:53;96200.00;;;14.10
19666;BMP180;9980;51.020;7.772;2024-03-02T10:24:22;96214.00;;;14.20
19666;BMP180;9980;51.020;7.772;2024-03-02T10:26:50;96196.00;;;14.30
19666;BMP180;9980;51.020;7.772;2024-03-02T10:29:18;96196.00;;;14.40
19666;BMP180;9980;51.020;7.772;2024-03-02T10:31:46;96196.00;;;14.40
19666;BMP180;9980;51.020;7.772;2024-03-02T10:34:13;96211.00;;;14.50
19666;BMP180;9980;51.020;7.772;2024-03-02T10:36:43;96198.00;;;14.60
19666;BMP180;9980;51.020;7.772;2024-03-02T10:39:12;96192.00;;;14.70
19666;BMP180;9980;51.020;7.772;2024-03-02T10:41:40;96195.00;;;14.70
19666;BMP180;9980;51.020;7.772;2024-03-02T10:44:09;96204.00;;;14.80
19666;BMP180;9980;51.020;7.772;2024-03-02T10:46:37;96193.00;;;14.80
19666;BMP180;9980;51.020;7.772;2024-03-02T10:49:05;96189.00;;;14.90
19666;BMP180;9980;51.020;7.772;2024-03-02T10:51:35;96178.00;;;15.00
19666;BMP180;9980;51.020;7.772;2024-03-02T10:54:05;96188.00;;;15.00
19666;BMP180;9980;51.020;7.772;2024-03-02T10:56:41;96193.00;;;15.10
19666;BMP180;9980;51.020;7.772;2024-03-02T10:59:34;96182.00;;;15.20
19666;BMP180;9980;51.020;7.772;2024-03-02T11:02:03;96196.00;;;15.30
19666;BMP180;9980;51.020;7.772;2024-03-02T11:04:34;96183.00;;;15.30
19666;BMP180;9980;51.020;7.772;2024-03-02T11:07:07;96199.00;;;15.40
19666;BMP180;9980;51.020;7.772;2024-03-02T11:09:42;96187.00;;;15.40
19666;BMP180;9980;51.020;7.772;2024-03-02T11:12:53;96167.00;;;15.50
19666;BMP180;9980;51.020;7.772;2024-03-02T11:15:25;96182.00;;;15.50
19666;BMP180;9980;51.020;7.772;2024-03-02T11:17:54;96165.00;;;15.60
19666;BMP180;9980;51.020;7.772;2024-03-02T11:20:21;96181.00;;;15.70
19666;BMP180;9980;51.020;7.772;2024-03-02T11:22:49;96181.00;;;15.80
19666;BMP180;9980;51.020;7.772;2024-03-02T11:25:27;96186.00;;;15.80
19666;BMP180;9980;51.020;7.772;2024-03-02T11:33:09;96189.00;;;16.00
19666;BMP180;9980;51.020;7.772;2024-03-02T11:35:44;96180.00;;;16.10
19666;BMP180;9980;51.020;7.772;2024-03-02T11:38:13;96178.00;;;16.20
19666;BMP180;9980;51.020;7.772;2024-03-02T11:40:41;96178.00;;;16.20
19666;BMP180;9980;51.020;7.772;2024-03-02T11:43:09;96182.00;;;16.30
19666;BMP180;9980;51.020;7.772;2024-03-02T11:45:37;96175.00;;;16.30
19666;BMP180;9980;51.020;7.772;2024-03-02T11:48:13;96188.00;;;16.40
19666;BMP180;9980;51.020;7.772;2024-03-02T11:50:49;96186.00;;;16.40
19666;BMP180;9980;51.020;7.772;2024-03-02T11:53:20;96185.00;;;16.40
19666;BMP180;9980;51.020;7.772;2024-03-02T11:55:50;96195.00;;;16.40
19666;BMP180;9980;51.020;7.772;2024-03-02T11:58:17;96191.00;;;16.50
19666;BMP180;9980;51.020;7.772;2024-03-02T12:00:51;96178.00;;;16.50
19666;BMP180;9980;51.020;7.772;2024-03-02T12:03:22;96193.00;;;16.50
19666;BMP180;9980;51.020;7.772;2024-03-02T12:05:52;96182.00;;;16.60
19666;BMP180;9980;51.020;7.772;2024-03-02T12:08:20;96175.00;;;16.60
19666;BMP180;9980;51.020;7.772;2024-03-02T12:11:00;96170.00;;;16.60
19666;BMP180;9980;51.020;7.772;2024-03-02T12:13:29;96157.00;;;16.70
19666;BMP180;9980;51.020;7.772;2024-03-02T12:15:56;96175.00;;;16.80
19666;BMP180;9980;51.020;7.772;2024-03-02T12:18:24;96156.00;;;16.80
19666;BMP180;9980;51.020;7.772;2024-03-02T12:20:52;96162.00;;;16.80
19666;BMP180;9980;51.020;7.772;2024-03-02T12:23:23;96166.00;;;16.90
19666;BMP180;9980;51.020;7.772;2024-03-02T12:25:50;96178.00;;;17.00
19666;BMP180;9980;51.020;7.772;2024-03-02T12:28:17;96173.00;;;17.10
19666;BMP180;9980;51.020;7.772;2024-03-02T12:30:44;96156.00;;;17.10
19666;BMP180;9980;51.020;7.772;2024-03-02T12:33:11;96162.00;;;17.20
19666;BMP180;9980;51.020;7.772;2024-03-02T12:35:40;96180.00;;;17.20
19666;BMP180;9980;51.020;7.772;2024-03-02T12:38:08;96157.00;;;17.30
19666;BMP180;9980;51.020;7.772;2024-03-02T12:40:35;96163.00;;;17.30
19666;BMP180;9980;51.020;7.772;2024-03-02T12:43:05;96172.00;;;17.30
19666;BMP180;9980;51.020;7.772;2024-03-02T12:45:34;96170.00;;;17.40
19666;BMP180;9980;51.020;7.772;2024-03-02T12:48:04;96158.00;;;17.30
19666;BMP180;9980;51.020;7.772;2024-03-02T12:50:31;96155.00;;;17.30
19666;BMP180;9980;51.020;7.772;2024-03-02T12:52:58;96151.00;;;17.30
19666;BMP180;9980;51.020;7.772;2024-03-02T12:55:25;96146.00;;;17.30
19666;BMP180;9980;51.020;7.772;2024-03-02T12:57:52;96142.00;;;17.30
19666;BMP180;9980;51.020;7.772;2024-03-02T13:00:21;96157.00;;;17.30
19666;BMP180;9980;51.020;7.772;2024-03-02T13:02:50;96139.00;;;17.30
19666;BMP180;9980;51.020;7.772;2024-03-02T13:05:19;96144.00;;;17.30
19666;BMP180;9980;51.020;7.772;2024-03-02T13:07:48;96134.00;;;17.30
19666;BMP180;9980;51.020;7.772;2024-03-02T13:10:16;96136.00;;;17.30
19666;BMP180;9980;51.020;7.772;2024-03-02T13:12:43;96141.00;;;17.30
19666;BMP180;9980;51.020;7.772;2024-03-02T13:15:10;96140.00;;;17.30
19666;BMP180;9980;51.020;7.772;2024-03-02T13:17:45;96145.00;;;17.30
19666;BMP180;9980;51.020;7.772;2024-03-02T13:20:13;96138.00;;;17.30
19666;BMP180;9980;51.020;7.772;2024-03-02T13:22:41;96154.00;;;17.40
19666;BMP180;9980;51.020;7.772;2024-03-02T13:25:08;96134.00;;;17.40
19666;BMP180;9980;51.020;7.772;2024-03-02T13:27:37;96135.00;;;17.40
19666;BMP180;9980;51.020;7.772;2024-03-02T13:30:05;96135.00;;;17.40
19666;BMP180;9980;51.020;7.772;2024-03-02T13:32:32;96132.00;;;17.40
19666;BMP180;9980;51.020;7.772;2024-03-02T13:35:00;96131.00;;;17.40
19666;BMP180;9980;51.020;7.772;2024-03-02T13:37:27;96140.00;;;17.40
19666;BMP180;9980;51.020;7.772;2024-03-02T13:39:54;96133.00;;;17.40
19666;BMP180;9980;51.020;7.772;2024-03-02T13:42:21;96114.00;;;17.40
19666;BMP180;9980;51.020;7.772;2024-03-02T13:44:49;96126.00;;;17.40
19666;BMP180;9980;51.020;7.772;2024-03-02T13:47:18;96118.00;;;17.40
19666;BMP180;9980;51.020;7.772;2024-03-02T13:49:44;96125.00;;;17.40
19666;BMP180;9980;51.020;7.772;2024-03-02T13:52:14;96126.00;;;17.40
19666;BMP180;9980;51.020;7.772;2024-03-02T13:54:43;96118.00;;;17.40
19666;BMP180;9980;51.020;7.772;2024-03-02T13:57:11;96119.00;;;17.40
19666;BMP180;9980;51.020;7.772;2024-03-02T13:59:41;96118.00;;;17.40
19666;BMP180;9980;51.020;7.772;2024-03-02T14:02:09;96114.00;;;17.40
19666;BMP180;9980;51.020;7.772;2024-03-02T14:04:36;96106.00;;;17.40
19666;BMP180;9980;51.020;7.772;2024-03-02T14:07:05;96119.00;;;17.40
19666;BMP180;9980;51.020;7.772;2024-03-02T14:09:34;96115.00;;;17.40
19666;BMP180;9980;51.020;7.772;2024-03-02T14:12:02;96114.00;;;17.50
19666;BMP180;9980;51.020;7.772;2024-03-02T14:14:29;96108.00;;;17.50
19666;BMP180;9980;51.020;7.772;2024-03-02T14:16:56;96098.00;;;17.50
19666;BMP180;9980;51.020;7.772;2024-03-02T14:19:27;96103.00;;;17.50
19666;BMP180;9980;51.020;7.772;2024-03-02T14:21:54;96103.00;;;17.50
19666;BMP180;9980;51.020;7.772;2024-03-02T14:24:21;96103.00;;;17.50
19666;BMP180;9980;51.020;7.772;2024-03-02T14:26:53;96091.00;;;17.50
19666;BMP180;9980;51.020;7.772;2024-03-02T14:29:32;96100.00;;;17.50
19666;BMP180;9980;51.020;7.772;2024-03-02T14:32:04;96088.00;;;17.40
19666;BMP180;9980;51.020;7.772;2024-03-02T14:34:30;96086.00;;;17.40
19666;BMP180;9980;51.020;7.772;2024-03-02T14:36:58;96072.00;;;17.40
19666;BMP180;9980;51.020;7.772;2024-03-02T14:39:26;96086.00;;;17.40
19666;BMP180;9980;51.020;7.772;2024-03-02T14:41:53;96073.00;;;17.40
19666;BMP180;9980;51.020;7.772;2024-03-02T14:44:21;96086.00;;;17.40
19666;BMP180;9980;51.020;7.772;2024-03-02T14:46:49;96082.00;;;17.40